Time;durP1;ratioP1;P1;durP2;ratioP2;P2;SDS_P1;SDS_P2;PMS_P1;PMS_P2;Temp;Humidity;BMP_temperature;BMP_pressure;BME280_temperature;BME280_humidity;BME280_pressure;Samples;Min_cycle;Max_cycle;Signal;HPM_P1;HPM_P2
2023/12/11 00:00:32;;;;;;;29.23;6.83;;;9.60;99.90;;;;;;5022207;28;20213;-80
2023/12/11 00:02:58;;;;;;;29.73;7.07;;;9.60;99.90;;;;;;5027179;28;20045;-79
2023/12/11 00:05:24;;;;;;;29.00;7.03;;;9.50;99.90;;;;;;5032717;28;20053;-79
2023/12/11 00:07:50;;;;;;;31.97;6.80;;;9.50;99.90;;;;;;5045965;28;20605;-79
2023/12/11 00:10:15;;;;;;;32.13;6.57;;;9.40;99.90;;;;;;5006215;28;20060;-78
2023/12/11 00:12:41;;;;;;;30.40;6.43;;;9.40;99.90;;;;;;4993171;28;20097;-80
2023/12/11 00:15:10;;;;;;;38.17;7.57;;;9.40;99.90;;;;;;5018885;28;20057;-79
2023/12/11 00:17:36;;;;;;;35.30;8.10;;;9.30;99.90;;;;;;5036014;28;20061;-78
2023/12/11 00:20:02;;;;;;;36.97;6.93;;;9.20;99.90;;;;;;5043361;28;20737;-79
2023/12/11 00:22:27;;;;;;;40.93;8.07;;;9.20;99.90;;;;;;5015261;28;20049;-80
2023/12/11 00:24:53;;;;;;;36.50;7.97;;;9.20;99.90;;;;;;5010357;28;20081;-79
2023/12/11 00:27:19;;;;;;;33.83;7.30;;;9.20;99.90;;;;;;5007205;28;20487;-79
2023/12/11 00:29:44;;;;;;;28.30;6.57;;;9.20;99.90;;;;;;4994157;28;20040;-80
2023/12/11 00:32:10;;;;;;;38.13;8.17;;;9.10;99.90;;;;;;5001110;28;20123;-80
2023/12/11 00:34:36;;;;;;;34.90;8.10;;;9.10;99.90;;;;;;5017697;28;20037;-80
2023/12/11 00:37:02;;;;;;;39.77;8.67;;;9.00;99.90;;;;;;4989068;28;20128;-80
2023/12/11 00:39:28;;;;;;;37.73;7.70;;;9.00;99.90;;;;;;5010620;28;20100;-80
2023/12/11 00:41:53;;;;;;;38.83;8.30;;;9.00;99.90;;;;;;5027965;28;20525;-80
2023/12/11 00:44:19;;;;;;;39.40;8.83;;;9.00;99.90;;;;;;5016408;28;20505;-79
2023/12/11 00:46:46;;;;;;;40.07;7.80;;;9.00;99.90;;;;;;4994424;28;20048;-80
2023/12/11 00:49:12;;;;;;;34.87;7.37;;;9.00;99.90;;;;;;5000333;28;20599;-80
2023/12/11 00:51:38;;;;;;;37.70;8.57;;;9.00;99.90;;;;;;5020230;28;20484;-80
2023/12/11 00:54:03;;;;;;;34.60;7.97;;;9.00;99.90;;;;;;5009834;28;20052;-80
2023/12/11 00:56:29;;;;;;;35.80;8.00;;;9.10;99.90;;;;;;5033386;28;20048;-81
2023/12/11 00:58:55;;;;;;;38.13;7.80;;;9.10;99.90;;;;;;5018282;28;20475;-80
2023/12/11 01:01:20;;;;;;;34.10;8.20;;;9.10;99.90;;;;;;5024332;28;20029;-80
2023/12/11 01:03:46;;;;;;;35.03;7.57;;;9.10;99.90;;;;;;5006501;28;20045;-81
2023/12/11 01:06:13;;;;;;;36.30;8.37;;;9.10;99.90;;;;;;5012778;28;20045;-81
2023/12/11 01:08:39;;;;;;;42.87;7.87;;;9.10;99.90;;;;;;5026060;28;20088;-81
2023/12/11 01:11:06;;;;;;;39.17;7.03;;;9.00;99.90;;;;;;5014449;28;20053;-82
2023/12/11 01:13:32;;;;;;;36.00;7.67;;;9.10;99.90;;;;;;5003251;28;20372;-82
2023/12/11 01:15:58;;;;;;;41.50;8.10;;;9.10;99.90;;;;;;5027277;28;20054;-80
2023/12/11 01:18:25;;;;;;;31.77;7.07;;;9.10;99.90;;;;;;5038234;28;20053;-80
2023/12/11 01:20:51;;;;;;;32.93;7.33;;;9.10;99.90;;;;;;5007400;28;20047;-80
2023/12/11 01:23:17;;;;;;;31.63;6.97;;;9.10;99.90;;;;;;5004775;28;20089;-81
2023/12/11 01:25:43;;;;;;;34.20;7.27;;;9.00;99.90;;;;;;5045142;28;20045;-81
2023/12/11 01:28:09;;;;;;;35.57;6.67;;;9.10;99.90;;;;;;5050551;28;20055;-82
2023/12/11 01:30:35;;;;;;;31.93;7.90;;;9.10;99.90;;;;;;5028433;28;20048;-81
2023/12/11 01:33:03;;;;;;;29.20;6.40;;;9.10;99.90;;;;;;5025254;28;20038;-81
2023/12/11 01:35:29;;;;;;;34.63;7.70;;;9.10;99.90;;;;;;5027325;28;20049;-81
2023/12/11 01:37:55;;;;;;;36.70;7.73;;;9.10;99.90;;;;;;5018355;28;20100;-81
2023/12/11 01:40:21;;;;;;;34.53;7.53;;;9.20;99.90;;;;;;5035931;28;20041;-81
2023/12/11 01:42:46;;;;;;;31.50;7.00;;;9.10;99.90;;;;;;5016203;28;20678;-81
2023/12/11 01:45:12;;;;;;;29.83;6.10;;;9.20;99.90;;;;;;5009772;28;20069;-81
2023/12/11 01:47:38;;;;;;;28.33;6.80;;;9.20;99.90;;;;;;5022050;28;20076;-81
2023/12/11 01:50:07;;;;;;;31.67;7.13;;;9.20;99.90;;;;;;5018561;28;20049;-81
2023/12/11 01:52:33;;;;;;;32.17;7.33;;;9.20;99.90;;;;;;5027880;28;20076;-82
2023/12/11 01:54:59;;;;;;;29.87;6.90;;;9.20;99.90;;;;;;5009443;28;20059;-82
2023/12/11 01:57:25;;;;;;;31.13;6.90;;;9.20;99.90;;;;;;5029020;28;20041;-82
2023/12/11 01:59:51;;;;;;;37.97;7.73;;;9.20;99.90;;;;;;5009222;28;20496;-82
2023/12/11 02:02:19;;;;;;;34.47;7.30;;;9.20;99.90;;;;;;4987929;28;20057;-81
2023/12/11 02:04:46;;;;;;;33.83;7.67;;;9.20;99.90;;;;;;5022178;28;20052;-81
2023/12/11 02:07:11;;;;;;;34.23;7.47;;;9.10;99.90;;;;;;5007743;28;20491;-81
2023/12/11 02:09:37;;;;;;;28.90;7.27;;;9.10;99.90;;;;;;5016051;28;20045;-81
2023/12/11 02:12:03;;;;;;;30.90;6.73;;;9.10;99.90;;;;;;5003788;28;20044;-81
2023/12/11 02:14:29;;;;;;;31.80;8.03;;;9.10;99.90;;;;;;5021232;28;20112;-81
2023/12/11 02:16:55;;;;;;;36.00;7.60;;;9.10;99.90;;;;;;5014694;28;20045;-81
2023/12/11 02:19:21;;;;;;;34.60;7.40;;;9.10;99.90;;;;;;5013808;28;20045;-82
2023/12/11 02:21:46;;;;;;;37.50;8.23;;;9.10;99.90;;;;;;5004371;28;20080;-82
2023/12/11 02:24:19;;;;;;;37.70;7.77;;;9.10;99.90;;;;;;5025633;28;20484;-82
2023/12/11 02:26:45;;;;;;;37.00;8.37;;;9.10;99.90;;;;;;5023054;28;20049;-80
2023/12/11 02:29:11;;;;;;;39.60;7.90;;;9.10;99.90;;;;;;5009183;28;20060;-80
2023/12/11 02:31:37;;;;;;;35.63;8.10;;;9.10;99.90;;;;;;5025285;28;20049;-80
2023/12/11 02:34:03;;;;;;;39.33;9.90;;;9.10;99.90;;;;;;5015568;28;20075;-79
2023/12/11 02:36:29;;;;;;;38.13;8.20;;;9.10;99.90;;;;;;4991718;28;20045;-80
2023/12/11 02:38:55;;;;;;;42.33;7.93;;;9.20;99.90;;;;;;5001813;28;20102;-80
2023/12/11 02:41:20;;;;;;;40.37;8.97;;;9.20;99.90;;;;;;5006156;28;20397;-80
2023/12/11 02:43:47;;;;;;;44.70;8.90;;;9.20;99.90;;;;;;5004384;28;20045;-80
2023/12/11 02:46:13;;;;;;;40.00;8.30;;;9.20;99.90;;;;;;5050654;28;20053;-81
2023/12/11 02:48:38;;;;;;;43.70;9.60;;;9.20;99.90;;;;;;5021597;28;20050;-81
2023/12/11 02:51:04;;;;;;;50.13;9.87;;;9.20;99.90;;;;;;5040965;28;20056;-81
2023/12/11 02:53:30;;;;;;;37.07;9.30;;;9.20;99.90;;;;;;4994344;28;20038;-82
2023/12/11 02:55:56;;;;;;;39.97;9.00;;;9.20;99.90;;;;;;4999155;28;20071;-82
2023/12/11 02:58:22;;;;;;;39.60;9.30;;;9.20;99.90;;;;;;5026893;28;20412;-82
2023/12/11 03:00:47;;;;;;;39.80;9.20;;;9.30;99.90;;;;;;5005279;28;20135;-81
2023/12/11 03:03:13;;;;;;;44.57;8.90;;;9.20;99.90;;;;;;5039151;28;20068;-81
2023/12/11 03:05:39;;;;;;;42.17;9.20;;;9.30;99.90;;;;;;4986922;28;20635;-82
2023/12/11 03:08:05;;;;;;;43.37;9.13;;;9.30;99.90;;;;;;5009734;28;20076;-82
2023/12/11 03:10:31;;;;;;;41.03;9.60;;;9.40;99.90;;;;;;5024009;28;20051;-81
2023/12/11 03:12:57;;;;;;;46.87;9.57;;;9.40;99.90;;;;;;5035847;28;20061;-82
2023/12/11 03:15:23;;;;;;;44.40;9.93;;;9.40;99.90;;;;;;5012311;28;20067;-82
2023/12/11 03:17:49;;;;;;;40.47;8.17;;;9.40;99.90;;;;;;5004185;28;20052;-81
2023/12/11 03:20:15;;;;;;;45.27;9.17;;;9.40;99.90;;;;;;4995007;28;20051;-81
2023/12/11 03:22:41;;;;;;;53.93;10.23;;;9.40;99.90;;;;;;5025963;28;20076;-81
2023/12/11 03:25:07;;;;;;;43.13;9.00;;;9.40;99.90;;;;;;5038562;28;21052;-82
2023/12/11 03:27:33;;;;;;;32.37;8.67;;;9.40;99.90;;;;;;5028681;28;20041;-80
2023/12/11 03:29:58;;;;;;;45.67;9.20;;;9.40;99.90;;;;;;5019679;28;20483;-81
2023/12/11 03:32:24;;;;;;;42.20;9.30;;;9.40;99.90;;;;;;5011055;28;20121;-81
2023/12/11 03:34:50;;;;;;;45.17;9.30;;;9.40;99.90;;;;;;5006945;28;20051;-81
2023/12/11 03:37:16;;;;;;;46.73;9.80;;;9.40;99.90;;;;;;5023966;28;20057;-81
2023/12/11 03:39:42;;;;;;;41.77;9.10;;;9.40;99.90;;;;;;5030547;28;20521;-78
2023/12/11 03:42:09;;;;;;;42.43;9.90;;;9.40;99.90;;;;;;5029833;28;20038;-81
2023/12/11 03:44:35;;;;;;;40.97;9.17;;;9.40;99.90;;;;;;5042001;28;20045;-81
2023/12/11 03:47:01;;;;;;;42.37;8.93;;;9.40;99.90;;;;;;5040311;28;20049;-81
2023/12/11 03:49:27;;;;;;;41.93;8.70;;;9.40;99.90;;;;;;5048526;28;20094;-80
2023/12/11 03:51:53;;;;;;;38.87;9.37;;;9.40;99.90;;;;;;5007958;28;20049;-80
2023/12/11 03:54:19;;;;;;;37.87;8.93;;;9.40;99.90;;;;;;5015428;28;20434;-81
2023/12/11 03:56:45;;;;;;;48.80;9.90;;;9.40;99.90;;;;;;5009798;28;20591;-80
2023/12/11 03:59:14;;;;;;;43.83;9.03;;;9.40;99.90;;;;;;5014137;28;20029;-81
2023/12/11 04:01:40;;;;;;;37.77;8.57;;;9.40;99.90;;;;;;5008522;28;20045;-81
2023/12/11 04:04:06;;;;;;;46.47;9.30;;;9.40;99.90;;;;;;5024821;28;20075;-82
2023/12/11 04:06:31;;;;;;;43.20;9.73;;;9.40;99.90;;;;;;5021251;28;20049;-81
2023/12/11 04:08:57;;;;;;;42.57;9.17;;;9.40;99.90;;;;;;5011252;28;20061;-81
2023/12/11 04:11:23;;;;;;;39.63;8.93;;;9.30;99.90;;;;;;5010242;28;20052;-81
2023/12/11 04:13:49;;;;;;;42.87;8.87;;;9.40;99.90;;;;;;5028586;28;20050;-82
2023/12/11 04:16:14;;;;;;;39.33;9.63;;;9.40;99.90;;;;;;5005184;28;20075;-82
2023/12/11 04:18:41;;;;;;;40.43;8.33;;;9.30;99.90;;;;;;5043806;28;20045;-80
2023/12/11 04:21:06;;;;;;;39.03;8.80;;;9.30;99.90;;;;;;5017159;28;20064;-81
2023/12/11 04:23:33;;;;;;;39.70;10.13;;;9.40;99.90;;;;;;5005940;28;20455;-80
2023/12/11 04:25:59;;;;;;;32.73;7.53;;;9.40;99.90;;;;;;5032887;28;20048;-81
2023/12/11 04:28:28;;;;;;;37.07;8.77;;;9.40;99.90;;;;;;5024520;28;20041;-80
2023/12/11 04:30:54;;;;;;;48.87;9.20;;;9.40;99.90;;;;;;4992799;28;20129;-81
2023/12/11 04:33:20;;;;;;;34.37;7.10;;;9.40;99.90;;;;;;5026533;28;20991;-81
2023/12/11 04:35:46;;;;;;;36.57;8.90;;;9.40;99.90;;;;;;5017924;28;20045;-82
2023/12/11 04:38:12;;;;;;;38.87;8.97;;;9.40;99.90;;;;;;5040656;28;20092;-81
2023/12/11 04:40:38;;;;;;;36.93;7.93;;;9.40;99.90;;;;;;5013916;28;20128;-82
2023/12/11 04:43:05;;;;;;;36.17;7.87;;;9.40;99.90;;;;;;5038550;28;20653;-81
2023/12/11 04:45:30;;;;;;;37.10;7.97;;;9.40;99.90;;;;;;5043051;28;20049;-81
2023/12/11 04:47:57;;;;;;;36.03;7.67;;;9.50;99.90;;;;;;5023425;28;20113;-82
2023/12/11 04:50:22;;;;;;;33.13;7.63;;;9.40;99.90;;;;;;5038279;28;20108;-81
2023/12/11 04:52:48;;;;;;;36.90;8.73;;;9.40;99.90;;;;;;5009579;28;20041;-81
2023/12/11 04:55:14;;;;;;;37.03;8.50;;;9.40;99.90;;;;;;5001159;28;20056;-81
2023/12/11 04:57:40;;;;;;;42.47;8.90;;;9.40;99.90;;;;;;5020602;28;20102;-81
2023/12/11 05:00:07;;;;;;;36.97;8.47;;;9.40;99.90;;;;;;5004963;28;20420;-81
2023/12/11 05:02:33;;;;;;;36.67;8.17;;;9.40;99.90;;;;;;5042448;28;20048;-81
2023/12/11 05:04:58;;;;;;;39.17;8.30;;;9.40;99.90;;;;;;5040423;28;20121;-81
2023/12/11 05:07:24;;;;;;;44.93;7.73;;;9.30;99.90;;;;;;5049086;28;20057;-80
2023/12/11 05:09:50;;;;;;;34.17;7.87;;;9.30;99.90;;;;;;4998476;28;20213;-80
2023/12/11 05:12:15;;;;;;;35.27;7.53;;;9.30;99.90;;;;;;5014749;28;20069;-81
2023/12/11 05:14:41;;;;;;;36.57;7.60;;;9.30;99.90;;;;;;5010398;28;20068;-80
2023/12/11 05:17:07;;;;;;;35.93;7.40;;;9.30;99.90;;;;;;5024683;28;20066;-79
2023/12/11 05:19:33;;;;;;;31.90;7.07;;;9.30;99.90;;;;;;5015520;28;20032;-80
2023/12/11 05:21:59;;;;;;;40.97;8.53;;;9.30;99.90;;;;;;4990563;28;20037;-81
2023/12/11 05:24:25;;;;;;;39.50;7.43;;;9.30;99.90;;;;;;5007028;28;20076;-80
2023/12/11 05:26:51;;;;;;;31.00;7.87;;;9.30;99.90;;;;;;5010377;28;20416;-81
2023/12/11 05:29:17;;;;;;;37.33;8.03;;;9.30;99.90;;;;;;5020338;28;20512;-79
2023/12/11 05:31:43;;;;;;;31.97;6.97;;;9.20;99.90;;;;;;4990659;28;20071;-79
2023/12/11 05:34:08;;;;;;;32.40;8.50;;;9.20;99.90;;;;;;5020609;28;20052;-79
2023/12/11 05:36:34;;;;;;;40.30;8.17;;;9.20;99.90;;;;;;5001087;28;20091;-79
2023/12/11 05:39:00;;;;;;;36.87;8.00;;;9.20;99.90;;;;;;5008104;28;20140;-80
2023/12/11 05:41:26;;;;;;;38.50;7.23;;;9.20;99.90;;;;;;4995063;28;20041;-80
2023/12/11 05:43:51;;;;;;;44.60;8.30;;;9.20;99.90;;;;;;5005471;28;20053;-81
2023/12/11 05:46:17;;;;;;;41.57;7.10;;;9.20;99.90;;;;;;4989051;28;20052;-80
2023/12/11 05:48:43;;;;;;;35.20;7.23;;;9.30;99.90;;;;;;5039538;28;20060;-80
2023/12/11 05:51:09;;;;;;;35.90;7.10;;;9.30;99.90;;;;;;5045456;28;20064;-82
2023/12/11 05:53:34;;;;;;;29.53;6.97;;;9.30;99.90;;;;;;4993247;28;20367;-78
2023/12/11 05:56:00;;;;;;;33.47;7.80;;;9.40;99.90;;;;;;5036128;28;20149;-76
2023/12/11 05:58:26;;;;;;;37.93;8.13;;;9.40;99.90;;;;;;5044022;28;20041;-78
2023/12/11 06:00:52;;;;;;;30.17;7.43;;;9.40;99.90;;;;;;5001080;28;20045;-80
2023/12/11 06:03:17;;;;;;;35.77;7.43;;;9.40;99.90;;;;;;5050036;28;20045;-82
2023/12/11 06:05:43;;;;;;;31.13;7.30;;;9.40;99.90;;;;;;5012795;28;20052;-81
2023/12/11 06:08:09;;;;;;;25.47;6.10;;;9.40;99.90;;;;;;5028016;28;20041;-81
2023/12/11 06:10:34;;;;;;;23.93;6.23;;;9.40;99.90;;;;;;5041097;28;20045;-88
2023/12/11 06:13:00;;;;;;;32.27;6.57;;;9.40;99.90;;;;;;5029533;28;20045;-85
2023/12/11 06:15:26;;;;;;;31.83;6.37;;;9.40;99.90;;;;;;5004496;28;20055;-84
2023/12/11 06:17:52;;;;;;;27.37;6.30;;;9.40;99.90;;;;;;5003624;28;20041;-83
2023/12/11 06:20:17;;;;;;;27.60;6.27;;;9.50;99.90;;;;;;5026992;28;20037;-86
2023/12/11 06:22:47;;;;;;;27.73;5.90;;;9.50;99.90;;;;;;5037552;28;20135;-88
2023/12/11 06:25:12;;;;;;;28.87;6.37;;;9.50;99.90;;;;;;5069540;28;20045;-89
2023/12/11 06:27:38;;;;;;;28.27;6.37;;;9.50;99.90;;;;;;4991679;28;20044;-89
2023/12/11 06:30:06;;;;;;;28.83;6.73;;;9.50;99.90;;;;;;5048507;28;20047;-90
2023/12/11 06:32:32;;;;;;;24.03;6.00;;;9.50;99.90;;;;;;5004648;28;20072;-88
2023/12/11 06:34:57;;;;;;;34.10;6.43;;;9.40;99.90;;;;;;5041477;28;20049;-89
2023/12/11 06:37:23;;;;;;;29.70;6.00;;;9.50;99.90;;;;;;4997563;28;20156;-89
2023/12/11 06:39:49;;;;;;;28.87;6.67;;;9.40;99.90;;;;;;4996626;28;20036;-90
2023/12/11 06:42:14;;;;;;;29.07;7.00;;;9.40;99.90;;;;;;5050904;28;20182;-89
2023/12/11 06:44:40;;;;;;;30.93;6.20;;;9.40;99.90;;;;;;5013807;28;20048;-89
2023/12/11 06:47:06;;;;;;;28.80;6.43;;;9.40;99.90;;;;;;5009091;28;20037;-88
2023/12/11 06:49:32;;;;;;;35.23;7.03;;;9.40;99.90;;;;;;5006998;28;20255;-87
2023/12/11 06:51:57;;;;;;;34.63;6.50;;;9.40;99.90;;;;;;5022235;28;20398;-79
2023/12/11 06:54:23;;;;;;;29.00;6.57;;;9.40;99.90;;;;;;5032833;28;20424;-86
2023/12/11 06:56:49;;;;;;;30.37;6.80;;;9.40;99.90;;;;;;5013578;28;20049;-87
2023/12/11 06:59:15;;;;;;;34.40;7.37;;;9.40;99.90;;;;;;5048305;28;20048;-88
2023/12/11 07:01:40;;;;;;;31.37;6.67;;;9.40;99.90;;;;;;5044283;28;20041;-88
2023/12/11 07:04:07;;;;;;;31.47;7.57;;;9.50;99.90;;;;;;5043347;28;20059;-86
2023/12/11 07:06:32;;;;;;;30.33;6.63;;;9.50;99.90;;;;;;5029412;28;20041;-86
2023/12/11 07:08:58;;;;;;;27.70;6.90;;;9.50;99.90;;;;;;5023653;28;20104;-88
2023/12/11 07:11:24;;;;;;;29.33;6.93;;;9.40;99.90;;;;;;5020151;28;20037;-85
2023/12/11 07:13:50;;;;;;;25.03;6.03;;;9.50;99.90;;;;;;5036217;28;20097;-87
2023/12/11 07:16:16;;;;;;;27.20;6.33;;;9.50;99.90;;;;;;5024380;28;20084;-89
2023/12/11 07:18:42;;;;;;;26.60;6.30;;;9.50;99.90;;;;;;5051464;28;20114;-89
2023/12/11 07:21:09;;;;;;;31.23;6.23;;;9.40;99.90;;;;;;5053390;28;20057;-91
2023/12/11 07:23:34;;;;;;;29.90;6.30;;;9.40;99.90;;;;;;5044245;28;20053;-88
2023/12/11 07:26:00;;;;;;;31.53;6.77;;;9.50;99.90;;;;;;5009505;28;20061;-88
2023/12/11 07:28:26;;;;;;;33.67;7.70;;;9.40;99.90;;;;;;4995278;28;20049;-84
2023/12/11 07:30:52;;;;;;;30.90;6.77;;;9.40;99.90;;;;;;5013791;28;20065;-87
2023/12/11 07:33:17;;;;;;;26.67;6.10;;;9.40;99.90;;;;;;5029051;28;20485;-88
2023/12/11 07:35:43;;;;;;;34.93;6.20;;;9.40;99.90;;;;;;5012903;28;20041;-88
2023/12/11 07:38:09;;;;;;;27.27;7.13;;;9.40;99.90;;;;;;4989870;28;20049;-88
2023/12/11 07:40:35;;;;;;;25.80;6.60;;;9.40;99.90;;;;;;5021641;28;20045;-89
2023/12/11 07:43:01;;;;;;;27.57;6.13;;;9.30;99.90;;;;;;5009345;28;20049;-85
2023/12/11 07:45:27;;;;;;;32.73;6.33;;;9.30;99.90;;;;;;5014315;28;20054;-85
2023/12/11 07:47:53;;;;;;;29.43;6.50;;;9.30;99.90;;;;;;5039040;28;20411;-86
2023/12/11 07:50:19;;;;;;;30.90;7.03;;;9.30;99.90;;;;;;5019891;28;20044;-85
2023/12/11 07:52:45;;;;;;;30.17;6.63;;;9.20;99.90;;;;;;5043333;28;20087;-85
2023/12/11 07:55:11;;;;;;;28.87;5.93;;;9.30;99.90;;;;;;5049420;28;20060;-87
2023/12/11 07:57:37;;;;;;;27.03;6.60;;;9.30;99.90;;;;;;5045268;28;20053;-86
2023/12/11 08:00:04;;;;;;;27.90;6.30;;;9.30;99.90;;;;;;5042552;28;20122;-86
2023/12/11 08:02:30;;;;;;;32.00;6.80;;;9.30;99.90;;;;;;5040496;28;20151;-86
2023/12/11 08:04:56;;;;;;;25.73;5.67;;;9.30;99.90;;;;;;5038925;28;20135;-85
2023/12/11 08:07:21;;;;;;;22.70;5.33;;;9.20;99.90;;;;;;5046523;28;20129;-86
2023/12/11 08:09:48;;;;;;;24.53;5.80;;;9.20;99.90;;;;;;5049144;28;20057;-87
2023/12/11 08:12:13;;;;;;;23.77;5.73;;;9.20;99.90;;;;;;5042943;28;20069;-89
2023/12/11 08:14:39;;;;;;;21.83;5.53;;;9.20;99.90;;;;;;5009306;28;20059;-88
2023/12/11 08:17:06;;;;;;;25.03;5.93;;;9.20;99.90;;;;;;5045930;28;20419;-87
2023/12/11 08:19:33;;;;;;;21.43;5.67;;;9.30;99.90;;;;;;5040029;28;20062;-78
2023/12/11 08:21:59;;;;;;;17.63;5.47;;;9.20;99.90;;;;;;5043060;28;20038;-80
2023/12/11 08:24:25;;;;;;;22.97;5.50;;;9.20;99.90;;;;;;5028366;28;20053;-80
2023/12/11 08:26:50;;;;;;;20.60;5.57;;;9.20;99.90;;;;;;4984088;28;20037;-76
2023/12/11 08:29:17;;;;;;;13.90;4.80;;;9.20;99.90;;;;;;4997115;28;20091;-86
2023/12/11 08:31:43;;;;;;;16.93;4.87;;;9.20;99.90;;;;;;5021822;28;20045;-86
2023/12/11 08:34:09;;;;;;;18.73;4.80;;;9.20;99.90;;;;;;5004284;28;20109;-88
2023/12/11 08:36:35;;;;;;;19.87;4.80;;;9.20;99.90;;;;;;5012160;28;20066;-86
2023/12/11 08:39:01;;;;;;;15.67;4.60;;;9.20;99.90;;;;;;5029686;28;20050;-77
2023/12/11 08:41:27;;;;;;;11.77;4.10;;;9.20;99.90;;;;;;5019267;28;20131;-88
2023/12/11 08:43:53;;;;;;;15.33;4.40;;;9.20;99.90;;;;;;5016357;28;20049;-88
2023/12/11 08:46:18;;;;;;;13.90;4.40;;;9.20;99.90;;;;;;5045893;28;20156;-89
2023/12/11 08:48:44;;;;;;;14.10;4.20;;;9.20;99.90;;;;;;5016729;28;20084;-88
2023/12/11 08:51:10;;;;;;;9.87;3.80;;;9.20;99.90;;;;;;5031448;28;20077;-89
2023/12/11 08:53:36;;;;;;;13.83;4.60;;;9.20;99.90;;;;;;5014634;28;20921;-88
2023/12/11 08:56:02;;;;;;;13.83;4.33;;;9.20;99.90;;;;;;5036782;28;20041;-87
2023/12/11 08:58:28;;;;;;;15.63;4.10;;;9.20;99.90;;;;;;5050293;28;20049;-89
2023/12/11 09:00:53;;;;;;;15.10;4.47;;;9.20;99.90;;;;;;5021271;28;20435;-90
2023/12/11 09:03:21;;;;;;;8.97;3.20;;;9.30;99.90;;;;;;5019282;28;20223;-89
2023/12/11 09:05:46;;;;;;;14.63;3.43;;;9.30;99.90;;;;;;5037400;28;20048;-89
2023/12/11 09:08:12;;;;;;;9.57;3.50;;;9.30;99.90;;;;;;5043282;28;20045;-89
2023/12/11 09:10:38;;;;;;;13.90;3.50;;;9.40;99.90;;;;;;5044778;28;20041;-88
2023/12/11 09:13:04;;;;;;;16.90;3.87;;;9.40;99.90;;;;;;5032309;28;20058;-93
2023/12/11 09:15:31;;;;;;;11.70;4.00;;;9.40;99.90;;;;;;5017671;28;20061;-90
2023/12/11 09:17:56;;;;;;;12.00;4.20;;;9.40;99.90;;;;;;5036717;28;20096;-90
2023/12/11 09:20:22;;;;;;;13.17;4.00;;;9.40;99.90;;;;;;5048052;28;20618;-91
2023/12/11 09:22:48;;;;;;;11.57;3.53;;;9.40;99.90;;;;;;5043792;28;20041;-92
2023/12/11 09:25:14;;;;;;;12.17;4.20;;;9.40;99.90;;;;;;5037241;28;20051;-90
2023/12/11 09:27:40;;;;;;;15.30;4.00;;;9.40;99.90;;;;;;5043655;28;20049;-92
2023/12/11 09:30:09;;;;;;;11.23;4.00;;;9.40;99.90;;;;;;5007583;28;20109;-90
2023/12/11 09:32:35;;;;;;;11.90;4.10;;;9.40;99.90;;;;;;5007491;28;20313;-88
2023/12/11 09:35:01;;;;;;;12.60;3.83;;;9.50;99.90;;;;;;5029286;28;20049;-88
2023/12/11 09:37:27;;;;;;;18.07;4.10;;;9.40;99.90;;;;;;5042709;28;20068;-84
2023/12/11 09:39:52;;;;;;;14.13;3.73;;;9.40;99.90;;;;;;5015130;28;20511;-88
2023/12/11 09:42:18;;;;;;;15.33;6.87;;;9.50;99.90;;;;;;5028301;28;20047;-85
2023/12/11 09:44:46;;;;;;;14.90;4.57;;;9.50;99.90;;;;;;5044570;28;20048;-86
2023/12/11 09:47:21;;;;;;;11.70;3.90;;;9.60;99.90;;;;;;5044064;28;20119;-84
2023/12/11 09:49:47;;;;;;;15.10;4.13;;;9.60;99.90;;;;;;5029820;28;20451;-87
2023/12/11 09:52:13;;;;;;;15.33;3.97;;;9.60;99.90;;;;;;5021923;28;20436;-88
2023/12/11 09:54:39;;;;;;;16.40;4.50;;;9.70;99.90;;;;;;5045930;28;20103;-88
2023/12/11 09:57:09;;;;;;;17.73;4.17;;;9.70;99.90;;;;;;5034964;28;20044;-91
2023/12/11 09:59:36;;;;;;;16.23;3.80;;;9.70;99.90;;;;;;5044099;28;20088;-88
2023/12/11 10:02:05;;;;;;;14.03;4.43;;;9.70;99.90;;;;;;5030585;28;20071;-88
2023/12/11 10:04:31;;;;;;;16.23;4.00;;;9.70;99.90;;;;;;5042771;28;20519;-88
2023/12/11 10:06:57;;;;;;;17.23;4.70;;;9.70;99.90;;;;;;5044969;28;20048;-89
2023/12/11 10:09:30;;;;;;;11.47;4.07;;;9.80;99.90;;;;;;5038335;28;20061;-88
2023/12/11 10:12:00;;;;;;;11.67;3.83;;;9.70;99.90;;;;;;5008381;28;20095;-89
2023/12/11 10:14:28;;;;;;;14.30;3.60;;;9.80;99.90;;;;;;5019981;28;20128;-88
2023/12/11 10:16:54;;;;;;;11.80;3.50;;;9.80;99.90;;;;;;5043039;28;20116;-88
2023/12/11 10:19:31;;;;;;;12.67;3.33;;;9.80;99.90;;;;;;5047428;28;20089;-93
2023/12/11 10:21:57;;;;;;;12.13;3.73;;;9.80;99.90;;;;;;5019782;28;20056;-87
2023/12/11 10:24:23;;;;;;;11.40;3.13;;;9.80;99.90;;;;;;5028169;28;20079;-86
2023/12/11 10:26:55;;;;;;;15.97;3.63;;;9.80;99.90;;;;;;5054713;28;20053;-90
2023/12/11 10:29:30;;;;;;;10.27;3.00;;;9.80;99.90;;;;;;5043089;28;20037;-83
2023/12/11 10:32:06;;;;;;;12.70;2.93;;;9.90;99.90;;;;;;5025163;28;20057;-89
2023/12/11 10:34:50;;;;;;;11.50;2.60;;;9.80;99.90;;;;;;5025271;28;20044;-90
2023/12/11 10:37:17;;;;;;;9.53;2.60;;;9.90;99.90;;;;;;5052443;28;20057;-93
2023/12/11 10:39:53;;;;;;;12.43;2.90;;;9.90;99.90;;;;;;5044366;28;20036;-90
2023/12/11 10:42:19;;;;;;;13.07;2.93;;;9.90;99.90;;;;;;5009932;28;20057;-88
2023/12/11 10:44:45;;;;;;;15.57;2.97;;;9.90;99.90;;;;;;5054303;28;20049;-93
2023/12/11 10:47:12;;;;;;;11.13;2.80;;;9.90;99.90;;;;;;5027252;28;20057;-88
2023/12/11 10:49:40;;;;;;;14.83;2.87;;;10.00;99.90;;;;;;5028048;28;20060;-90
2023/12/11 10:52:06;;;;;;;14.00;3.23;;;9.90;99.90;;;;;;5042490;28;20052;-88
2023/12/11 10:54:34;;;;;;;13.47;2.90;;;10.00;99.90;;;;;;5051542;28;20056;-90
2023/12/11 10:57:01;;;;;;;14.77;3.80;;;10.00;99.90;;;;;;5053510;28;20082;-88
2023/12/11 10:59:33;;;;;;;13.57;3.67;;;10.00;99.90;;;;;;5041066;28;20115;-88
2023/12/11 11:02:00;;;;;;;16.67;3.35;;;10.00;99.90;;;;;;5029090;28;20038;-89
2023/12/11 11:04:30;;;;;;;14.23;3.07;;;10.00;99.90;;;;;;5041553;28;20270;-89
2023/12/11 11:06:58;;;;;;;13.57;3.00;;;10.00;99.90;;;;;;5024388;28;20042;-86
2023/12/11 11:09:36;;;;;;;14.20;3.60;;;10.10;99.90;;;;;;5011368;28;20053;-88
2023/12/11 11:12:10;;;;;;;14.43;3.23;;;10.00;99.90;;;;;;5020953;28;20140;-88
2023/12/11 11:14:47;;;;;;;19.30;3.80;;;10.10;99.90;;;;;;5026207;28;20052;-88
2023/12/11 11:17:13;;;;;;;18.00;3.73;;;10.10;99.90;;;;;;5043510;28;20049;-90
2023/12/11 11:20:14;;;;;;;17.43;4.03;;;10.00;99.90;;;;;;5025868;28;20050;-89
2023/12/11 11:22:40;;;;;;;15.53;3.23;;;10.00;99.90;;;;;;5013665;28;20037;-87
2023/12/11 11:25:28;;;;;;;13.60;3.50;;;9.90;99.90;;;;;;5003796;28;20123;-87
2023/12/11 11:27:53;;;;;;;15.77;3.07;;;10.00;99.90;;;;;;5043822;28;20041;-87
2023/12/11 11:30:41;;;;;;;13.80;3.07;;;9.90;99.90;;;;;;5031673;28;20466;-88
2023/12/11 11:33:08;;;;;;;16.77;3.60;;;9.90;99.90;;;;;;5038552;28;20115;-88
2023/12/11 11:35:49;;;;;;;13.47;3.37;;;9.80;99.90;;;;;;5028069;28;20058;-88
2023/12/11 11:38:20;;;;;;;15.43;3.70;;;9.80;99.90;;;;;;5043480;28;20045;-90
2023/12/11 11:40:48;;;;;;;12.80;2.87;;;9.70;99.90;;;;;;5031401;28;20049;-89
2023/12/11 11:43:14;;;;;;;18.80;3.67;;;9.70;99.90;;;;;;5036606;28;20047;-88
2023/12/11 11:45:41;;;;;;;12.63;3.30;;;9.70;99.90;;;;;;5030724;28;20045;-88
2023/12/11 11:48:06;;;;;;;16.47;3.80;;;9.70;99.90;;;;;;5052149;28;20077;-87
2023/12/11 11:50:32;;;;;;;14.13;3.30;;;9.70;99.90;;;;;;5040105;28;20072;-81
2023/12/11 11:53:11;;;;;;;20.03;3.63;;;9.70;99.90;;;;;;5053075;28;20051;-90
2023/12/11 11:55:40;;;;;;;14.73;3.40;;;9.60;99.90;;;;;;5034939;28;20080;-90
2023/12/11 11:58:13;;;;;;;16.57;3.33;;;9.70;99.90;;;;;;5034097;28;20041;-89
2023/12/11 12:00:39;;;;;;;12.00;3.10;;;9.70;99.90;;;;;;5045394;28;20344;-88
2023/12/11 12:03:08;;;;;;;19.13;4.40;;;9.70;99.90;;;;;;5018752;28;20041;-89
2023/12/11 12:05:37;;;;;;;11.10;2.63;;;9.70;99.90;;;;;;5031570;28;20049;-88
2023/12/11 12:08:07;;;;;;;13.90;3.17;;;9.60;99.90;;;;;;5039883;28;20056;-87
2023/12/11 12:10:33;;;;;;;8.90;3.03;;;9.60;99.90;;;;;;5054472;28;20045;-88
2023/12/11 12:13:00;;;;;;;10.80;3.37;;;9.60;99.90;;;;;;5038797;28;20041;-88
2023/12/11 12:15:27;;;;;;;14.87;3.37;;;9.70;99.90;;;;;;5048541;28;20062;-89
2023/12/11 12:17:53;;;;;;;19.70;3.97;;;9.70;99.90;;;;;;5025530;28;20046;-91
2023/12/11 12:20:20;;;;;;;16.50;4.20;;;9.60;99.90;;;;;;5027931;28;20044;-87
2023/12/11 12:22:59;;;;;;;17.43;4.40;;;9.60;99.90;;;;;;5020439;28;20045;-89
2023/12/11 12:25:28;;;;;;;25.07;5.50;;;9.60;99.90;;;;;;5029187;28;20048;-89
2023/12/11 12:28:01;;;;;;;19.57;5.17;;;9.60;99.90;;;;;;5045299;28;20048;-89
2023/12/11 12:30:27;;;;;;;18.80;4.93;;;9.50;99.90;;;;;;5026966;28;20508;-90
2023/12/11 12:32:54;;;;;;;16.87;4.70;;;9.50;99.90;;;;;;5009428;28;20065;-89
2023/12/11 12:35:21;;;;;;;17.33;4.23;;;9.60;99.90;;;;;;5053769;28;20484;-87
2023/12/11 12:37:49;;;;;;;15.40;4.37;;;9.60;99.90;;;;;;5025400;28;20092;-86
2023/12/11 12:40:18;;;;;;;17.23;3.63;;;9.50;99.90;;;;;;5033169;28;20096;-85
2023/12/11 12:42:44;;;;;;;11.80;4.17;;;9.50;99.90;;;;;;5023370;28;20049;-87